sensor_id;sensor_type;location;lat;lon;timestamp;temperature;humidity
51853;DHT22;37894;53.172;6.598;2023-04-01T00:00:16;9.70;99.90
51853;DHT22;37894;53.172;6.598;2023-04-01T00:02:42;9.60;99.90
51853;DHT22;37894;53.172;6.598;2023-04-01T00:05:09;9.50;99.90
51853;DHT22;37894;53.172;6.598;2023-04-01T00:07:36;9.10;99.90
51853;DHT22;37894;53.172;6.598;2023-04-01T00:10:03;8.90;99.90
51853;DHT22;37894;53.172;6.598;2023-04-01T00:12:29;9.20;99.90
51853;DHT22;37894;53.172;6.598;2023-04-01T00:14:55;10.00;99.90
51853;DHT22;37894;53.172;6.598;2023-04-01T00:22:13;9.60;99.90
51853;DHT22;37894;53.172;6.598;2023-04-01T00:24:39;9.30;99.90
51853;DHT22;37894;53.172;6.598;2023-04-01T00:27:05;9.90;99.90
51853;DHT22;37894;53.172;6.598;2023-04-01T00:29:31;9.70;99.90
51853;DHT22;37894;53.172;6.598;2023-04-01T00:31:57;9.90;99.90
51853;DHT22;37894;53.172;6.598;2023-04-01T00:34:23;9.10;99.90
51853;DHT22;37894;53.172;6.598;2023-04-01T00:36:50;9.80;99.90
51853;DHT22;37894;53.172;6.598;2023-04-01T00:39:17;9.70;99.90
51853;DHT22;37894;53.172;6.598;2023-04-01T00:41:43;9.00;99.90
51853;DHT22;37894;53.172;6.598;2023-04-01T00:44:24;10.50;99.90
51853;DHT22;37894;53.172;6.598;2023-04-01T00:46:50;9.70;99.90
51853;DHT22;37894;53.172;6.598;2023-04-01T00:49:20;9.70;99.90
51853;DHT22;37894;53.172;6.598;2023-04-01T00:51:49;9.70;99.90
51853;DHT22;37894;53.172;6.598;2023-04-01T00:54:16;9.20;99.90
51853;DHT22;37894;53.172;6.598;2023-04-01T00:56:55;9.50;99.90
51853;DHT22;37894;53.172;6.598;2023-04-01T00:59:26;9.80;99.90
51853;DHT22;37894;53.172;6.598;2023-04-01T01:01:52;9.80;99.90
51853;DHT22;37894;53.172;6.598;2023-04-01T01:04:29;9.80;99.90
51853;DHT22;37894;53.172;6.598;2023-04-01T01:15:26;9.60;99.90
51853;DHT22;37894;53.172;6.598;2023-04-01T01:31:25;9.60;99.90
51853;DHT22;37894;53.172;6.598;2023-04-01T01:34:22;8.70;99.90
51853;DHT22;37894;53.172;6.598;2023-04-01T01:36:54;9.70;99.90
51853;DHT22;37894;53.172;6.598;2023-04-01T01:39:27;9.60;99.90
51853;DHT22;37894;53.172;6.598;2023-04-01T01:41:57;9.40;99.90
51853;DHT22;37894;53.172;6.598;2023-04-01T01:44:25;9.80;99.90
51853;DHT22;37894;53.172;6.598;2023-04-01T01:46:52;9.40;99.90
51853;DHT22;37894;53.172;6.598;2023-04-01T01:49:18;10.60;99.90
51853;DHT22;37894;53.172;6.598;2023-04-01T01:51:45;9.70;99.90
51853;DHT22;37894;53.172;6.598;2023-04-01T01:54:13;9.70;99.90
51853;DHT22;37894;53.172;6.598;2023-04-01T01:56:39;9.70;99.90
51853;DHT22;37894;53.172;6.598;2023-04-01T01:59:09;9.80;99.90
51853;DHT22;37894;53.172;6.598;2023-04-01T02:01:41;9.40;99.90
51853;DHT22;37894;53.172;6.598;2023-04-01T02:04:08;9.50;99.90
51853;DHT22;37894;53.172;6.598;2023-04-01T02:06:38;9.80;99.90
51853;DHT22;37894;53.172;6.598;2023-04-01T02:09:08;9.70;99.90
51853;DHT22;37894;53.172;6.598;2023-04-01T02:11:49;9.50;99.90
51853;DHT22;37894;53.172;6.598;2023-04-01T02:14:24;9.40;99.90
51853;DHT22;37894;53.172;6.598;2023-04-01T02:19:29;9.30;99.90
51853;DHT22;37894;53.172;6.598;2023-04-01T02:21:59;9.10;99.90
51853;DHT22;37894;53.172;6.598;2023-04-01T02:24:28;10.00;99.90
51853;DHT22;37894;53.172;6.598;2023-04-01T02:26:55;9.60;99.90
51853;DHT22;37894;53.172;6.598;2023-04-01T02:29:23;10.00;99.90
51853;DHT22;37894;53.172;6.598;2023-04-01T02:31:52;10.70;99.90
51853;DHT22;37894;53.172;6.598;2023-04-01T02:34:19;9.70;99.90
51853;DHT22;37894;53.172;6.598;2023-04-01T02:36:47;9.90;99.90
51853;DHT22;37894;53.172;6.598;2023-04-01T02:39:13;9.60;99.90
51853;DHT22;37894;53.172;6.598;2023-04-01T02:41:43;9.90;99.90
51853;DHT22;37894;53.172;6.598;2023-04-01T02:44:11;9.60;99.90
51853;DHT22;37894;53.172;6.598;2023-04-01T02:46:37;10.00;99.90
51853;DHT22;37894;53.172;6.598;2023-04-01T02:49:03;9.70;99.90
51853;DHT22;37894;53.172;6.598;2023-04-01T02:51:29;9.90;99.90
51853;DHT22;37894;53.172;6.598;2023-04-01T02:53:54;9.40;99.90
51853;DHT22;37894;53.172;6.598;2023-04-01T02:56:20;9.70;99.90
51853;DHT22;37894;53.172;6.598;2023-04-01T02:58:47;9.70;99.90
51853;DHT22;37894;53.172;6.598;2023-04-01T03:01:13;9.90;99.90
51853;DHT22;37894;53.172;6.598;2023-04-01T03:03:38;9.70;99.90
51853;DHT22;37894;53.172;6.598;2023-04-01T03:06:06;10.20;99.90
51853;DHT22;37894;53.172;6.598;2023-04-01T03:08:32;9.40;99.90
51853;DHT22;37894;53.172;6.598;2023-04-01T03:10:58;9.70;99.90
51853;DHT22;37894;53.172;6.598;2023-04-01T03:13:23;10.00;99.90
51853;DHT22;37894;53.172;6.598;2023-04-01T03:15:49;9.70;99.90
51853;DHT22;37894;53.172;6.598;2023-04-01T03:18:15;9.50;99.90
51853;DHT22;37894;53.172;6.598;2023-04-01T03:20:40;9.30;99.90
51853;DHT22;37894;53.172;6.598;2023-04-01T03:23:07;9.50;99.90
51853;DHT22;37894;53.172;6.598;2023-04-01T03:25:33;9.50;99.90
51853;DHT22;37894;53.172;6.598;2023-04-01T03:27:58;10.60;99.90
51853;DHT22;37894;53.172;6.598;2023-04-01T03:30:25;9.60;99.90
51853;DHT22;37894;53.172;6.598;2023-04-01T03:32:52;9.70;99.90
51853;DHT22;37894;53.172;6.598;2023-04-01T03:35:17;9.40;99.90
51853;DHT22;37894;53.172;6.598;2023-04-01T03:37:43;9.40;99.90
51853;DHT22;37894;53.172;6.598;2023-04-01T03:40:10;9.70;99.90
51853;DHT22;37894;53.172;6.598;2023-04-01T03:42:35;10.60;99.90
51853;DHT22;37894;53.172;6.598;2023-04-01T03:45:02;9.90;99.90
51853;DHT22;37894;53.172;6.598;2023-04-01T03:47:28;9.60;99.90
51853;DHT22;37894;53.172;6.598;2023-04-01T03:49:54;9.80;99.90
51853;DHT22;37894;53.172;6.598;2023-04-01T03:52:20;10.80;99.90
51853;DHT22;37894;53.172;6.598;2023-04-01T03:54:45;9.80;99.90
51853;DHT22;37894;53.172;6.598;2023-04-01T03:57:11;9.40;99.90
51853;DHT22;37894;53.172;6.598;2023-04-01T03:59:37;9.60;99.90
51853;DHT22;37894;53.172;6.598;2023-04-01T04:02:03;8.60;99.90
51853;DHT22;37894;53.172;6.598;2023-04-01T04:04:29;9.30;99.90
51853;DHT22;37894;53.172;6.598;2023-04-01T04:06:55;9.20;99.90
51853;DHT22;37894;53.172;6.598;2023-04-01T04:09:22;9.60;99.90
51853;DHT22;37894;53.172;6.598;2023-04-01T04:11:48;10.10;99.90
51853;DHT22;37894;53.172;6.598;2023-04-01T04:14:14;9.70;99.90
51853;DHT22;37894;53.172;6.598;2023-04-01T04:16:40;9.40;99.90
51853;DHT22;37894;53.172;6.598;2023-04-01T04:19:06;10.60;99.90
51853;DHT22;37894;53.172;6.598;2023-04-01T04:21:31;9.80;99.90
51853;DHT22;37894;53.172;6.598;2023-04-01T04:23:59;9.40;99.90
51853;DHT22;37894;53.172;6.598;2023-04-01T04:26:25;9.90;99.90
51853;DHT22;37894;53.172;6.598;2023-04-01T04:28:51;9.70;99.90
51853;DHT22;37894;53.172;6.598;2023-04-01T04:31:21;9.50;99.90
51853;DHT22;37894;53.172;6.598;2023-04-01T04:33:48;9.40;99.90
51853;DHT22;37894;53.172;6.598;2023-04-01T04:36:14;9.30;99.90
51853;DHT22;37894;53.172;6.598;2023-04-01T04:38:39;9.80;99.90
51853;DHT22;37894;53.172;6.598;2023-04-01T04:41:13;9.50;99.90
51853;DHT22;37894;53.172;6.598;2023-04-01T04:43:40;9.90;99.90
51853;DHT22;37894;53.172;6.598;2023-04-01T04:46:09;9.50;99.90
51853;DHT22;37894;53.172;6.598;2023-04-01T04:48:36;9.40;99.90
51853;DHT22;37894;53.172;6.598;2023-04-01T04:51:02;9.60;99.90
51853;DHT22;37894;53.172;6.598;2023-04-01T04:53:29;9.20;99.90
51853;DHT22;37894;53.172;6.598;2023-04-01T04:55:55;9.70;99.90
51853;DHT22;37894;53.172;6.598;2023-04-01T04:58:20;9.70;99.90
51853;DHT22;37894;53.172;6.598;2023-04-01T05:00:46;9.60;99.90
51853;DHT22;37894;53.172;6.598;2023-04-01T05:03:12;9.10;99.90
51853;DHT22;37894;53.172;6.598;2023-04-01T05:05:39;9.30;99.90
51853;DHT22;37894;53.172;6.598;2023-04-01T05:08:05;9.70;99.90
51853;DHT22;37894;53.172;6.598;2023-04-01T05:10:31;10.30;99.90
51853;DHT22;37894;53.172;6.598;2023-04-01T05:12:57;9.10;99.90
51853;DHT22;37894;53.172;6.598;2023-04-01T05:15:24;9.70;99.90
51853;DHT22;37894;53.172;6.598;2023-04-01T05:17:49;9.60;99.90
51853;DHT22;37894;53.172;6.598;2023-04-01T05:20:16;9.60;99.90
51853;DHT22;37894;53.172;6.598;2023-04-01T05:22:42;9.40;99.90
51853;DHT22;37894;53.172;6.598;2023-04-01T05:25:08;9.20;99.90
51853;DHT22;37894;53.172;6.598;2023-04-01T05:27:33;10.20;99.90
51853;DHT22;37894;53.172;6.598;2023-04-01T05:29:59;9.90;99.90
51853;DHT22;37894;53.172;6.598;2023-04-01T05:32:25;9.90;99.90
51853;DHT22;37894;53.172;6.598;2023-04-01T05:34:51;9.50;99.90
51853;DHT22;37894;53.172;6.598;2023-04-01T05:37:17;10.30;99.90
51853;DHT22;37894;53.172;6.598;2023-04-01T05:39:43;10.20;99.90
51853;DHT22;37894;53.172;6.598;2023-04-01T05:42:08;10.00;99.90
51853;DHT22;37894;53.172;6.598;2023-04-01T05:44:35;9.60;99.90
51853;DHT22;37894;53.172;6.598;2023-04-01T05:47:01;9.80;99.90
51853;DHT22;37894;53.172;6.598;2023-04-01T05:49:27;9.60;99.90
51853;DHT22;37894;53.172;6.598;2023-04-01T05:54:20;8.90;99.90
51853;DHT22;37894;53.172;6.598;2023-04-01T05:56:46;9.70;99.90
51853;DHT22;37894;53.172;6.598;2023-04-01T05:59:12;9.20;99.90
51853;DHT22;37894;53.172;6.598;2023-04-01T06:01:38;9.60;99.90
51853;DHT22;37894;53.172;6.598;2023-04-01T06:04:04;10.00;99.90
51853;DHT22;37894;53.172;6.598;2023-04-01T06:06:31;9.60;99.90
51853;DHT22;37894;53.172;6.598;2023-04-01T06:09:04;10.20;99.90
51853;DHT22;37894;53.172;6.598;2023-04-01T06:22:42;9.50;99.90
51853;DHT22;37894;53.172;6.598;2023-04-01T06:34:08;10.50;99.90
51853;DHT22;37894;53.172;6.598;2023-04-01T06:48:16;10.20;99.90
51853;DHT22;37894;53.172;6.598;2023-04-01T06:51:22;10.10;99.90
51853;DHT22;37894;53.172;6.598;2023-04-01T06:56:22;10.00;99.90
51853;DHT22;37894;53.172;6.598;2023-04-01T06:59:05;9.90;99.90
51853;DHT22;37894;53.172;6.598;2023-04-01T07:01:42;10.10;99.90
51853;DHT22;37894;53.172;6.598;2023-04-01T07:04:26;9.70;99.90
51853;DHT22;37894;53.172;6.598;2023-04-01T07:07:04;9.70;99.90
51853;DHT22;37894;53.172;6.598;2023-04-01T07:09:43;10.80;99.90
51853;DHT22;37894;53.172;6.598;2023-04-01T07:12:43;9.90;99.90
51853;DHT22;37894;53.172;6.598;2023-04-01T07:17:48;10.30;99.90
51853;DHT22;37894;53.172;6.598;2023-04-01T07:20:27;9.90;99.90
51853;DHT22;37894;53.172;6.598;2023-04-01T07:22:58;9.90;99.90
51853;DHT22;37894;53.172;6.598;2023-04-01T07:25:33;9.80;99.90
51853;DHT22;37894;53.172;6.598;2023-04-01T07:28:05;9.90;99.90
51853;DHT22;37894;53.172;6.598;2023-04-01T07:31:21;10.20;99.90
51853;DHT22;37894;53.172;6.598;2023-04-01T07:33:54;10.10;99.90
51853;DHT22;37894;53.172;6.598;2023-04-01T07:36:47;10.60;99.90
51853;DHT22;37894;53.172;6.598;2023-04-01T07:39:38;9.90;99.90
51853;DHT22;37894;53.172;6.598;2023-04-01T07:42:28;9.90;99.90
51853;DHT22;37894;53.172;6.598;2023-04-01T07:45:29;9.70;99.90
51853;DHT22;37894;53.172;6.598;2023-04-01T08:12:12;10.30;99.90
51853;DHT22;37894;53.172;6.598;2023-04-01T08:15:05;10.30;99.90
51853;DHT22;37894;53.172;6.598;2023-04-01T08:23:14;10.30;99.90
51853;DHT22;37894;53.172;6.598;2023-04-01T08:25:50;10.60;99.90
51853;DHT22;37894;53.172;6.598;2023-04-01T08:28:37;10.40;99.90
51853;DHT22;37894;53.172;6.598;2023-04-01T08:34:01;10.70;99.90
51853;DHT22;37894;53.172;6.598;2023-04-01T08:36:38;10.50;99.90
51853;DHT22;37894;53.172;6.598;2023-04-01T08:39:31;10.40;99.90
51853;DHT22;37894;53.172;6.598;2023-04-01T08:42:20;10.70;99.90
51853;DHT22;37894;53.172;6.598;2023-04-01T08:45:21;10.50;99.90
51853;DHT22;37894;53.172;6.598;2023-04-01T09:04:24;12.10;99.90
51853;DHT22;37894;53.172;6.598;2023-04-01T09:23:32;11.10;99.90
51853;DHT22;37894;53.172;6.598;2023-04-01T09:42:45;10.20;99.90
51853;DHT22;37894;53.172;6.598;2023-04-01T09:45:28;11.30;99.90
51853;DHT22;37894;53.172;6.598;2023-04-01T10:16:26;9.70;99.90
51853;DHT22;37894;53.172;6.598;2023-04-01T10:19:08;10.40;99.90
51853;DHT22;37894;53.172;6.598;2023-04-01T10:32:38;10.20;99.90
51853;DHT22;37894;53.172;6.598;2023-04-01T10:52:10;9.40;99.90
51853;DHT22;37894;53.172;6.598;2023-04-01T11:05:57;10.10;99.90
51853;DHT22;37894;53.172;6.598;2023-04-01T11:19:51;10.30;99.90
51853;DHT22;37894;53.172;6.598;2023-04-01T11:25:35;9.50;99.90
51853;DHT22;37894;53.172;6.598;2023-04-01T11:33:47;10.10;99.90
51853;DHT22;37894;53.172;6.598;2023-04-01T11:37:10;10.00;99.90
51853;DHT22;37894;53.172;6.598;2023-04-01T11:42:20;10.20;99.90
51853;DHT22;37894;53.172;6.598;2023-04-01T11:45:06;10.00;99.90
51853;DHT22;37894;53.172;6.598;2023-04-01T11:47:48;10.70;99.90
51853;DHT22;37894;53.172;6.598;2023-04-01T11:56:51;10.60;99.90
51853;DHT22;37894;53.172;6.598;2023-04-01T12:10:33;10.00;99.90
51853;DHT22;37894;53.172;6.598;2023-04-01T12:18:41;10.50;99.90
51853;DHT22;37894;53.172;6.598;2023-04-01T12:35:24;11.80;99.90
51853;DHT22;37894;53.172;6.598;2023-04-01T12:38:20;10.40;99.90
51853;DHT22;37894;53.172;6.598;2023-04-01T12:58:03;10.10;99.90
51853;DHT22;37894;53.172;6.598;2023-04-01T13:08:43;9.90;99.90
51853;DHT22;37894;53.172;6.598;2023-04-01T13:11:36;10.90;99.90
51853;DHT22;37894;53.172;6.598;2023-04-01T13:19:49;9.60;99.90
51853;DHT22;37894;53.172;6.598;2023-04-01T13:24:58;9.80;99.90
51853;DHT22;37894;53.172;6.598;2023-04-01T13:27:34;9.70;99.90
51853;DHT22;37894;53.172;6.598;2023-04-01T13:33:47;9.80;99.90
51853;DHT22;37894;53.172;6.598;2023-04-01T13:38:46;9.80;99.90
51853;DHT22;37894;53.172;6.598;2023-04-01T13:41:54;10.10;99.90
51853;DHT22;37894;53.172;6.598;2023-04-01T13:47:20;9.70;99.90
51853;DHT22;37894;53.172;6.598;2023-04-01T14:01:23;9.90;99.90
51853;DHT22;37894;53.172;6.598;2023-04-01T14:10:11;9.80;99.90
51853;DHT22;37894;53.172;6.598;2023-04-01T14:12:46;9.60;99.90
51853;DHT22;37894;53.172;6.598;2023-04-01T14:26:34;9.60;99.90
51853;DHT22;37894;53.172;6.598;2023-04-01T14:31:59;9.50;99.90
51853;DHT22;37894;53.172;6.598;2023-04-01T14:46:14;9.60;99.90
51853;DHT22;37894;53.172;6.598;2023-04-01T14:48:52;9.30;99.90
51853;DHT22;37894;53.172;6.598;2023-04-01T14:51:37;9.30;99.90
51853;DHT22;37894;53.172;6.598;2023-04-01T14:54:30;9.30;99.90
51853;DHT22;37894;53.172;6.598;2023-04-01T14:57:11;10.00;99.90
51853;DHT22;37894;53.172;6.598;2023-04-01T14:59:46;9.10;99.90
51853;DHT22;37894;53.172;6.598;2023-04-01T15:08:05;8.30;99.90
51853;DHT22;37894;53.172;6.598;2023-04-01T15:16:27;8.80;99.90
51853;DHT22;37894;53.172;6.598;2023-04-01T15:24:48;9.70;99.90
51853;DHT22;37894;53.172;6.598;2023-04-01T15:27:36;8.50;99.90
51853;DHT22;37894;53.172;6.598;2023-04-01T15:33:11;9.20;99.90
51853;DHT22;37894;53.172;6.598;2023-04-01T15:38:34;9.00;99.90
51853;DHT22;37894;53.172;6.598;2023-04-01T15:41:24;8.70;99.90
51853;DHT22;37894;53.172;6.598;2023-04-01T15:43:52;8.50;99.90
51853;DHT22;37894;53.172;6.598;2023-04-01T15:49:09;8.70;99.90
51853;DHT22;37894;53.172;6.598;2023-04-01T15:55:00;8.60;99.90
51853;DHT22;37894;53.172;6.598;2023-04-01T16:00:28;8.30;99.90
51853;DHT22;37894;53.172;6.598;2023-04-01T16:17:23;7.80;99.90
51853;DHT22;37894;53.172;6.598;2023-04-01T16:20:20;7.90;99.90
51853;DHT22;37894;53.172;6.598;2023-04-01T16:25:51;7.90;99.90
51853;DHT22;37894;53.172;6.598;2023-04-01T16:28:31;7.90;99.90
51853;DHT22;37894;53.172;6.598;2023-04-01T16:31:00;7.80;99.90
51853;DHT22;37894;53.172;6.598;2023-04-01T16:33:35;7.90;99.90
51853;DHT22;37894;53.172;6.598;2023-04-01T16:36:27;7.80;99.90
51853;DHT22;37894;53.172;6.598;2023-04-01T16:41:36;7.40;99.90
51853;DHT22;37894;53.172;6.598;2023-04-01T16:44:22;7.70;99.90
51853;DHT22;37894;53.172;6.598;2023-04-01T16:47:21;7.80;99.90
51853;DHT22;37894;53.172;6.598;2023-04-01T16:49:59;7.50;99.90
51853;DHT22;37894;53.172;6.598;2023-04-01T16:53:14;7.40;99.90
51853;DHT22;37894;53.172;6.598;2023-04-01T16:56:13;7.30;99.90
51853;DHT22;37894;53.172;6.598;2023-04-01T16:59:06;7.50;99.90
51853;DHT22;37894;53.172;6.598;2023-04-01T17:01:52;7.40;99.90
51853;DHT22;37894;53.172;6.598;2023-04-01T17:07:30;7.70;99.90
51853;DHT22;37894;53.172;6.598;2023-04-01T17:27:16;7.40;99.90
51853;DHT22;37894;53.172;6.598;2023-04-01T17:32:34;7.00;99.90
51853;DHT22;37894;53.172;6.598;2023-04-01T17:38:13;7.20;99.90
51853;DHT22;37894;53.172;6.598;2023-04-01T17:40:44;7.30;99.90
51853;DHT22;37894;53.172;6.598;2023-04-01T17:46:11;7.00;99.90
51853;DHT22;37894;53.172;6.598;2023-04-01T17:51:36;7.30;99.90
51853;DHT22;37894;53.172;6.598;2023-04-01T18:00:20;7.10;99.90
51853;DHT22;37894;53.172;6.598;2023-04-01T18:16:31;7.20;99.90
51853;DHT22;37894;53.172;6.598;2023-04-01T18:23:54;6.00;99.90
51853;DHT22;37894;53.172;6.598;2023-04-01T18:26:29;6.90;99.90
51853;DHT22;37894;53.172;6.598;2023-04-01T18:29:04;6.80;99.90
51853;DHT22;37894;53.172;6.598;2023-04-01T18:31:41;6.70;99.90
51853;DHT22;37894;53.172;6.598;2023-04-01T18:34:13;6.80;99.90
51853;DHT22;37894;53.172;6.598;2023-04-01T18:37:00;6.70;99.90
51853;DHT22;37894;53.172;6.598;2023-04-01T18:39:46;6.70;99.90
51853;DHT22;37894;53.172;6.598;2023-04-01T18:42:34;6.50;99.90
51853;DHT22;37894;53.172;6.598;2023-04-01T18:48:37;7.10;99.90
51853;DHT22;37894;53.172;6.598;2023-04-01T18:51:13;6.80;99.90
51853;DHT22;37894;53.172;6.598;2023-04-01T18:56:15;5.70;99.90
51853;DHT22;37894;53.172;6.598;2023-04-01T18:58:54;6.50;99.90
51853;DHT22;37894;53.172;6.598;2023-04-01T19:01:47;6.50;99.90
51853;DHT22;37894;53.172;6.598;2023-04-01T19:04:26;6.50;99.90
51853;DHT22;37894;53.172;6.598;2023-04-01T19:06:56;6.70;99.90
51853;DHT22;37894;53.172;6.598;2023-04-01T19:09:44;6.60;99.90
51853;DHT22;37894;53.172;6.598;2023-04-01T19:12:34;6.50;99.90
51853;DHT22;37894;53.172;6.598;2023-04-01T19:18:34;6.40;99.90
51853;DHT22;37894;53.172;6.598;2023-04-01T19:38:35;5.70;99.90
51853;DHT22;37894;53.172;6.598;2023-04-01T19:47:39;5.40;99.90
51853;DHT22;37894;53.172;6.598;2023-04-01T19:50:10;6.70;99.90
51853;DHT22;37894;53.172;6.598;2023-04-01T19:52:42;6.00;99.90
51853;DHT22;37894;53.172;6.598;2023-04-01T19:55:37;6.10;99.90
51853;DHT22;37894;53.172;6.598;2023-04-01T19:58:36;6.00;99.90
51853;DHT22;37894;53.172;6.598;2023-04-01T20:01:10;5.80;99.90
51853;DHT22;37894;53.172;6.598;2023-04-01T20:14:55;5.80;99.90
51853;DHT22;37894;53.172;6.598;2023-04-01T20:17:30;5.80;99.90
51853;DHT22;37894;53.172;6.598;2023-04-01T20:25:18;5.70;99.90
51853;DHT22;37894;53.172;6.598;2023-04-01T20:44:42;6.10;99.90
51853;DHT22;37894;53.172;6.598;2023-04-01T20:52:46;5.50;99.90
51853;DHT22;37894;53.172;6.598;2023-04-01T21:03:41;5.60;99.90
51853;DHT22;37894;53.172;6.598;2023-04-01T21:06:52;5.60;99.90
51853;DHT22;37894;53.172;6.598;2023-04-01T21:20:18;6.20;99.90
51853;DHT22;37894;53.172;6.598;2023-04-01T21:31:53;6.00;99.90
51853;DHT22;37894;53.172;6.598;2023-04-01T21:37:13;5.70;99.90
51853;DHT22;37894;53.172;6.598;2023-04-01T22:07:58;5.40;99.90
51853;DHT22;37894;53.172;6.598;2023-04-01T22:13:12;5.00;99.90
51853;DHT22;37894;53.172;6.598;2023-04-01T22:19:00;5.20;99.90
51853;DHT22;37894;53.172;6.598;2023-04-01T22:21:38;5.30;99.90
51853;DHT22;37894;53.172;6.598;2023-04-01T22:24:29;5.30;99.90
51853;DHT22;37894;53.172;6.598;2023-04-01T22:27:17;5.20;99.90
51853;DHT22;37894;53.172;6.598;2023-04-01T22:29:56;5.20;99.90
51853;DHT22;37894;53.172;6.598;2023-04-01T22:32:40;5.20;99.90
51853;DHT22;37894;53.172;6.598;2023-04-01T22:43:13;5.40;99.90
51853;DHT22;37894;53.172;6.598;2023-04-01T22:48:20;4.80;99.90
51853;DHT22;37894;53.172;6.598;2023-04-01T22:53:59;5.10;99.90
51853;DHT22;37894;53.172;6.598;2023-04-01T22:56:37;5.00;99.90
51853;DHT22;37894;53.172;6.598;2023-04-01T23:01:50;4.90;99.90
51853;DHT22;37894;53.172;6.598;2023-04-01T23:04:20;5.80;99.90
51853;DHT22;37894;53.172;6.598;2023-04-01T23:06:56;4.90;99.90
51853;DHT22;37894;53.172;6.598;2023-04-01T23:09:37;4.70;99.90
51853;DHT22;37894;53.172;6.598;2023-04-01T23:12:13;4.70;99.90
51853;DHT22;37894;53.172;6.598;2023-04-01T23:14:52;4.70;99.90
51853;DHT22;37894;53.172;6.598;2023-04-01T23:20:21;4.80;99.90
51853;DHT22;37894;53.172;6.598;2023-04-01T23:23:15;5.10;99.90
51853;DHT22;37894;53.172;6.598;2023-04-01T23:28:54;4.70;99.90
51853;DHT22;37894;53.172;6.598;2023-04-01T23:31:33;4.70;99.90
51853;DHT22;37894;53.172;6.598;2023-04-01T23:34:28;4.50;99.90
51853;DHT22;37894;53.172;6.598;2023-04-01T23:36:58;4.50;99.90
51853;DHT22;37894;53.172;6.598;2023-04-01T23:39:37;4.40;99.90
51853;DHT22;37894;53.172;6.598;2023-04-01T23:42:14;3.70;99.90
51853;DHT22;37894;53.172;6.598;2023-04-01T23:44:40;4.50;99.90
51853;DHT22;37894;53.172;6.598;2023-04-01T23:47:12;4.40;99.90
51853;DHT22;37894;53.172;6.598;2023-04-01T23:49:39;5.20;99.90
51853;DHT22;37894;53.172;6.598;2023-04-01T23:52:27;4.30;99.90
51853;DHT22;37894;53.172;6.598;2023-04-01T23:55:03;5.20;99.90
51853;DHT22;37894;53.172;6.598;2023-04-01T23:57:34;4.30;99.90
